createdAt,value
2023-02-26T00:02:10.692Z,3.43
2023-02-26T00:07:12.590Z,3.17
2023-02-26T00:12:15.031Z,2.63
2023-02-26T00:17:32.991Z,2.60
2023-02-26T00:22:36.214Z,3.70
2023-02-26T00:27:38.849Z,3.03
2023-02-26T00:32:41.522Z,3.90
2023-02-26T00:38:01.828Z,4.27
2023-02-26T00:43:06.536Z,3.40
2023-02-26T00:48:45.308Z,3.50
2023-02-26T00:54:04.977Z,2.20
2023-02-26T00:59:06.910Z,2.63
2023-02-26T01:04:11.504Z,2.70
2023-02-26T01:09:34.244Z,2.53
2023-02-26T01:14:36.792Z,2.87
2023-02-26T01:19:58.583Z,2.60
2023-02-26T01:25:10.603Z,2.47
2023-02-26T01:30:13.072Z,2.53
2023-02-26T01:35:27.213Z,2.83
2023-02-26T01:40:48.148Z,3.03
2023-02-26T01:46:07.840Z,2.33
2023-02-26T01:51:10.059Z,3.27
2023-02-26T01:56:18.080Z,2.33
2023-02-26T02:01:20.421Z,2.33
2023-02-26T02:06:25.405Z,2.63
2023-02-26T02:11:27.702Z,2.47
2023-02-26T02:16:47.536Z,1.97
2023-02-26T02:22:15.024Z,2.10
2023-02-26T02:27:50.405Z,2.40
2023-02-26T02:32:59.979Z,2.17
2023-02-26T02:38:13.821Z,1.87
2023-02-26T02:43:19.687Z,3.17
2023-02-26T02:48:30.980Z,1.60
2023-02-26T02:53:53.331Z,1.97
2023-02-26T02:59:01.381Z,1.97
2023-02-26T03:04:11.371Z,2.00
2023-02-26T03:09:13.798Z,2.00
2023-02-26T03:14:16.703Z,1.70
2023-02-26T03:19:46.494Z,1.50
2023-02-26T03:25:06.778Z,2.00
2023-02-26T03:30:28.913Z,1.83
2023-02-26T03:35:55.092Z,1.70
2023-02-26T03:41:22.592Z,2.20
2023-02-26T03:46:34.137Z,1.77
2023-02-26T03:51:38.906Z,1.53
2023-02-26T03:57:04.766Z,2.07
2023-02-26T04:02:44.176Z,1.73
2023-02-26T04:07:51.225Z,1.77
2023-02-26T04:12:53.243Z,1.30
2023-02-26T04:17:55.225Z,1.63
2023-02-26T04:22:57.335Z,1.90
2023-02-26T04:27:59.460Z,1.87
2023-02-26T04:33:01.760Z,1.50
2023-02-26T04:38:05.382Z,1.40
2023-02-26T04:43:08.652Z,1.70
2023-02-26T04:48:18.728Z,1.37
2023-02-26T04:53:20.887Z,1.80
2023-02-26T04:58:23.377Z,1.73
2023-02-26T05:03:25.326Z,1.40
2023-02-26T05:08:28.032Z,1.50
2023-02-26T05:13:30.092Z,1.33
2023-02-26T05:18:32.522Z,1.83
2023-02-26T05:23:34.521Z,1.10
2023-02-26T05:28:36.815Z,1.50
2023-02-26T05:33:38.950Z,1.60
2023-02-26T05:38:40.917Z,1.47
2023-02-26T05:43:42.946Z,1.33
2023-02-26T05:48:45.948Z,1.80
2023-02-26T05:53:48.156Z,2.30
2023-02-26T05:58:50.089Z,1.20
2023-02-26T06:03:52.121Z,1.00
2023-02-26T06:08:54.430Z,1.50
2023-02-26T06:13:56.701Z,1.27
2023-02-26T06:18:59.018Z,1.03
2023-02-26T06:24:01.086Z,1.27
2023-02-26T06:29:03.279Z,1.43
2023-02-26T06:34:05.111Z,1.17
2023-02-26T06:39:08.062Z,1.27
2023-02-26T06:44:11.145Z,1.40
2023-02-26T06:49:13.092Z,1.00
2023-02-26T06:54:15.103Z,1.20
2023-02-26T06:59:17.139Z,1.10
2023-02-26T07:04:20.807Z,1.10
2023-02-26T07:09:22.723Z,1.27
2023-02-26T07:14:24.661Z,0.93
2023-02-26T07:19:26.562Z,0.77
2023-02-26T07:24:28.637Z,0.83
2023-02-26T07:29:31.331Z,1.13
2023-02-26T07:34:33.586Z,1.20
2023-02-26T07:39:35.539Z,0.90
2023-02-26T07:44:37.680Z,0.83
2023-02-26T07:49:40.263Z,1.37
2023-02-26T07:54:42.265Z,1.17
2023-02-26T07:59:44.713Z,1.10
2023-02-26T08:04:46.693Z,1.20
2023-02-26T08:09:48.842Z,0.93
2023-02-26T08:14:50.824Z,1.20
2023-02-26T08:19:53.699Z,1.00
2023-02-26T08:24:56.054Z,1.13
2023-02-26T08:29:57.917Z,2.03
2023-02-26T08:35:00.167Z,1.70
2023-02-26T08:40:02.398Z,1.43
2023-02-26T08:45:04.799Z,1.20
2023-02-26T08:50:07.357Z,1.23
2023-02-26T08:55:10.050Z,1.20
2023-02-26T09:00:12.900Z,0.87
2023-02-26T09:05:15.876Z,1.50
2023-02-26T09:10:18.042Z,1.00
2023-02-26T09:15:20.178Z,0.90
2023-02-26T09:20:23.628Z,1.40
2023-02-26T09:25:25.464Z,0.63
2023-02-26T09:30:27.767Z,1.03
2023-02-26T09:35:29.834Z,1.00
2023-02-26T09:40:46.201Z,0.77
2023-02-26T09:45:50.898Z,0.90
2023-02-26T09:50:56.614Z,0.73
2023-02-26T09:56:03.290Z,0.80
2023-02-26T10:01:14.268Z,1.27
2023-02-26T10:06:34.946Z,0.70
2023-02-26T10:12:02.490Z,0.87
2023-02-26T10:17:28.796Z,0.60
2023-02-26T10:22:43.651Z,0.90
2023-02-26T10:27:53.564Z,1.10
2023-02-26T10:33:03.960Z,0.80
2023-02-26T10:38:12.246Z,0.70
2023-02-26T10:43:18.228Z,0.70
2023-02-26T10:48:32.340Z,0.67
2023-02-26T10:53:34.635Z,0.70
2023-02-26T10:58:36.657Z,1.33
2023-02-26T11:03:42.415Z,0.60
2023-02-26T11:08:48.432Z,0.60
2023-02-26T11:13:52.258Z,0.73
2023-02-26T11:18:55.737Z,0.53
2023-02-26T11:24:32.127Z,0.60
2023-02-26T11:29:39.881Z,0.60
2023-02-26T11:34:48.080Z,0.60
2023-02-26T11:39:58.135Z,0.73
2023-02-26T11:45:00.628Z,0.70
2023-02-26T11:50:10.721Z,0.73
2023-02-26T11:55:32.298Z,0.70
2023-02-26T12:00:38.509Z,0.50
2023-02-26T12:05:40.447Z,1.00
2023-02-26T12:10:52.980Z,0.60
2023-02-26T12:16:37.020Z,0.80
2023-02-26T12:21:42.196Z,0.50
2023-02-26T12:26:55.480Z,0.80
2023-02-26T12:32:24.040Z,0.87
2023-02-26T12:37:37.393Z,0.90
2023-02-26T12:42:45.769Z,0.70
2023-02-26T12:48:19.452Z,1.03
2023-02-26T12:53:33.466Z,0.90
2023-02-26T12:58:41.344Z,0.63
2023-02-26T13:04:26.668Z,0.57
2023-02-26T13:10:06.454Z,0.70
2023-02-26T13:15:32.136Z,0.80
2023-02-26T13:20:37.201Z,0.80
2023-02-26T13:25:42.322Z,0.50
2023-02-26T13:30:50.501Z,0.77
2023-02-26T13:35:54.706Z,0.77
2023-02-26T13:41:34.008Z,0.80
2023-02-26T13:46:52.873Z,0.90
2023-02-26T13:51:55.592Z,0.50
2023-02-26T13:57:15.736Z,0.70
2023-02-26T14:02:20.844Z,0.50
2023-02-26T14:07:47.479Z,0.70
2023-02-26T14:13:14.227Z,0.80
2023-02-26T14:18:39.652Z,0.80
2023-02-26T14:23:42.274Z,0.57
2023-02-26T14:29:06.168Z,0.73
2023-02-26T14:34:16.404Z,0.93
2023-02-26T14:39:55.259Z,0.67
2023-02-26T14:45:10.739Z,0.80
2023-02-26T14:50:18.673Z,0.80
2023-02-26T14:55:58.757Z,0.60
2023-02-26T15:01:39.413Z,0.57
2023-02-26T15:07:07.386Z,0.70
2023-02-26T15:12:18.342Z,0.97
2023-02-26T15:17:56.092Z,0.77
2023-02-26T15:23:16.563Z,1.03
2023-02-26T15:28:31.307Z,1.00
2023-02-26T15:33:34.563Z,0.90
2023-02-26T15:38:46.437Z,0.90
2023-02-26T15:44:02.071Z,0.83
2023-02-26T15:49:11.906Z,1.00
2023-02-26T15:54:19.686Z,1.27
2023-02-26T15:59:26.608Z,0.60
2023-02-26T16:04:28.677Z,0.70
2023-02-26T16:09:36.741Z,0.93
2023-02-26T16:14:41.873Z,1.00
2023-02-26T16:19:50.508Z,0.70
2023-02-26T16:25:15.554Z,0.97
2023-02-26T16:30:23.802Z,0.80
2023-02-26T16:35:34.805Z,1.00
2023-02-26T16:40:41.515Z,0.70
2023-02-26T16:45:51.010Z,1.00
2023-02-26T16:51:04.815Z,0.80
2023-02-26T16:56:06.911Z,1.00
2023-02-26T17:01:14.122Z,0.83
2023-02-26T17:06:19.670Z,1.10
2023-02-26T17:11:38.980Z,1.00
2023-02-26T17:16:41.513Z,1.33
2023-02-26T17:21:55.119Z,1.43
2023-02-26T17:26:57.502Z,1.30
2023-02-26T17:31:59.449Z,1.60
2023-02-26T17:37:05.599Z,1.90
2023-02-26T17:42:19.333Z,2.13
2023-02-26T17:47:24.120Z,2.67
2023-02-26T17:52:26.691Z,1.67
2023-02-26T17:57:29.027Z,1.70
2023-02-26T18:02:31.056Z,1.80
2023-02-26T18:07:33.199Z,1.20
2023-02-26T18:12:35.110Z,1.10
2023-02-26T18:17:37.642Z,1.23
2023-02-26T18:22:39.520Z,1.23
2023-02-26T18:27:42.538Z,1.40
2023-02-26T18:32:44.504Z,1.30
2023-02-26T18:37:47.306Z,1.73
2023-02-26T18:42:49.911Z,1.70
2023-02-26T18:47:52.203Z,1.67
2023-02-26T18:52:54.249Z,1.90
2023-02-26T18:57:56.356Z,2.20
2023-02-26T19:02:58.344Z,2.00
2023-02-26T19:08:01.052Z,1.77
2023-02-26T19:13:04.439Z,2.70
2023-02-26T19:18:06.554Z,2.53
2023-02-26T19:23:09.256Z,1.90
2023-02-26T19:28:11.183Z,1.80
2023-02-26T19:33:13.363Z,2.33
2023-02-26T19:38:15.526Z,2.03
2023-02-26T19:43:17.781Z,1.90
2023-02-26T19:48:21.101Z,2.00
2023-02-26T19:53:23.163Z,1.93
2023-02-26T19:58:25.899Z,2.53
2023-02-26T20:03:29.102Z,2.20
2023-02-26T20:08:31.508Z,2.40
2023-02-26T20:13:34.982Z,1.53
2023-02-26T20:18:37.445Z,2.30
2023-02-26T20:23:40.202Z,1.93
2023-02-26T20:28:42.506Z,2.10
2023-02-26T20:33:44.853Z,2.10
2023-02-26T20:38:47.106Z,2.00
2023-02-26T20:43:49.181Z,1.63
2023-02-26T20:48:51.093Z,1.83
2023-02-26T20:53:53.272Z,1.53
2023-02-26T20:58:55.362Z,2.13
2023-02-26T21:03:57.301Z,2.00
2023-02-26T21:09:01.197Z,1.30
2023-02-26T21:14:04.710Z,1.50
2023-02-26T21:19:06.824Z,1.97
2023-02-26T21:24:08.799Z,1.67
2023-02-26T21:29:10.638Z,1.87
2023-02-26T21:34:32.780Z,2.07
2023-02-26T21:39:35.447Z,1.70
2023-02-26T21:44:37.475Z,1.20
2023-02-26T21:49:39.523Z,1.97
2023-02-26T21:54:41.752Z,1.57
2023-02-26T21:59:43.856Z,1.43
2023-02-26T22:04:46.120Z,1.53
2023-02-26T22:09:49.105Z,1.30
2023-02-26T22:14:51.943Z,1.30
2023-02-26T22:19:54.004Z,1.50
2023-02-26T22:24:55.981Z,1.67
2023-02-26T22:29:58.359Z,1.70
2023-02-26T22:35:00.407Z,1.30
2023-02-26T22:40:03.842Z,1.13
2023-02-26T22:45:06.822Z,1.40
2023-02-26T22:50:09.732Z,0.80
2023-02-26T22:55:12.287Z,1.33
2023-02-26T23:00:20.601Z,1.47
2023-02-26T23:05:22.683Z,1.10
2023-02-26T23:10:24.529Z,1.67
2023-02-26T23:15:26.838Z,1.50
2023-02-26T23:20:29.084Z,1.00
2023-02-26T23:25:31.236Z,1.30
2023-02-26T23:30:34.406Z,1.50
2023-02-26T23:35:36.976Z,1.17
2023-02-26T23:40:38.985Z,1.17
2023-02-26T23:45:40.966Z,1.20
2023-02-26T23:50:42.879Z,0.90
2023-02-26T23:55:44.733Z,1.17
